Time;durP1;ratioP1;P1;durP2;ratioP2;P2;SDS_P1;SDS_P2;PMS_P1;PMS_P2;Temp;Humidity;BMP_temperature;BMP_pressure;BME280_temperature;BME280_humidity;BME280_pressure;Samples;Min_cycle;Max_cycle;Signal;HPM_P1;HPM_P2
2022/07/07 00:03:14;;;;;;;3.95;1.40;;;;;;;20.54;47.68;100753.84;18562678;32;20124;-57
2022/07/07 00:13:19;;;;;;;3.35;1.77;;;;;;;19.82;49.71;100764.38;18561945;32;20107;-57
2022/07/07 00:23:22;;;;;;;1.83;1.50;;;;;;;19.80;49.73;100778.59;18563140;32;20160;-57
2022/07/07 00:33:27;;;;;;;3.00;1.50;;;;;;;19.86;50.07;100777.50;18561481;32;20114;-57
2022/07/07 00:43:36;;;;;;;2.28;1.45;;;;;;;19.83;50.42;100774.06;18547824;32;20152;-57
2022/07/07 00:53:41;;;;;;;2.03;1.40;;;;;;;19.59;50.32;100769.59;18560715;32;20080;-57
2022/07/07 01:03:44;;;;;;;2.40;1.40;;;;;;;19.56;50.31;100775.84;18560318;32;20485;-57
2022/07/07 01:13:49;;;;;;;2.90;1.58;;;;;;;19.26;51.88;100775.97;18559597;32;20088;-57
2022/07/07 01:23:53;;;;;;;3.12;1.77;;;;;;;19.15;53.13;100776.28;18561002;32;20437;-57
2022/07/07 01:33:56;;;;;;;3.08;1.60;;;;;;;18.89;51.70;100775.34;18566823;32;20092;-57
2022/07/07 01:44:01;;;;;;;2.67;1.75;;;;;;;18.52;52.29;100779.94;18566118;32;20119;-57
2022/07/07 01:54:04;;;;;;;2.37;1.60;;;;;;;18.52;53.03;100772.00;18566318;32;20101;-57
2022/07/07 02:04:10;;;;;;;2.40;1.60;;;;;;;18.68;53.61;100769.75;18565873;32;20376;-57
2022/07/07 02:14:13;;;;;;;3.08;1.60;;;;;;;18.50;53.86;100779.13;18565686;32;20126;-57
2022/07/07 02:24:18;;;;;;;3.55;1.60;;;;;;;18.17;54.63;100779.19;18566769;32;20076;-57
2022/07/07 02:34:21;;;;;;;2.87;1.73;;;;;;;18.17;54.62;100780.03;18565258;32;20451;-57
2022/07/07 02:44:26;;;;;;;4.55;1.90;;;;;;;17.96;55.38;100788.53;18564637;32;20096;-57
2022/07/07 02:54:29;;;;;;;3.50;1.87;;;;;;;18.10;54.90;100780.25;18564630;32;20124;-57
2022/07/07 03:04:33;;;;;;;2.03;1.55;;;;;;;17.84;55.85;100785.31;18564425;32;20096;-57
2022/07/07 03:14:37;;;;;;;3.62;1.87;;;;;;;17.82;55.73;100779.19;18564165;32;20099;-57
2022/07/07 03:24:41;;;;;;;4.57;1.77;;;;;;;17.88;55.71;100781.69;18563848;32;20482;-57
2022/07/07 03:34:45;;;;;;;2.75;2.08;;;;;;;17.75;56.33;100783.75;18564386;32;20133;-57
2022/07/07 03:44:49;;;;;;;2.65;1.48;;;;;;;17.79;56.88;100791.62;18562298;32;20155;-57
2022/07/07 03:54:53;;;;;;;4.82;1.75;;;;;;;17.98;56.76;100798.16;18562975;32;20701;-57
2022/07/07 04:04:57;;;;;;;2.97;1.90;;;;;;;18.28;56.34;100789.44;18562447;32;20214;-57
2022/07/07 04:15:01;;;;;;;2.80;1.60;;;;;;;18.50;57.00;100788.84;18563217;32;20182;-57
2022/07/07 04:25:07;;;;;;;5.25;2.10;;;;;;;19.23;55.80;100789.31;18561974;32;20761;-57
2022/07/07 04:35:11;;;;;;;4.95;2.47;;;;;;;20.56;52.14;100775.87;18561402;32;20101;-57
2022/07/07 04:45:16;;;;;;;6.47;2.83;;;;;;;20.72;50.67;100772.63;18561986;32;20145;-57
2022/07/07 04:55:19;;;;;;;6.85;2.80;;;;;;;21.42;48.30;100765.41;18611837;31;20107;-57
2022/07/07 05:05:24;;;;;;;5.70;2.65;;;;;;;21.32;48.65;100766.72;18590955;31;20116;-57
2022/07/07 05:15:27;;;;;;;5.57;2.17;;;;;;;21.65;47.37;100765.38;18559646;32;20096;-57
2022/07/07 05:25:32;;;;;;;6.55;2.60;;;;;;;21.66;48.20;100780.38;18559242;32;20402;-58
2022/07/07 05:35:35;;;;;;;5.82;2.40;;;;;;;21.44;49.62;100776.84;18558567;32;20097;-57
2022/07/07 05:45:40;;;;;;;3.20;1.98;;;;;;;21.33;50.15;100787.91;18567260;31;20118;-57
2022/07/07 05:55:43;;;;;;;5.20;1.92;;;;;;;21.68;51.34;100778.56;18557479;32;20088;-57
2022/07/07 06:05:48;;;;;;;4.75;1.70;;;;;;;21.99;49.79;100778.06;18557082;32;20177;-57
2022/07/07 06:15:51;;;;;;;3.25;1.75;;;;;;;21.99;48.87;100770.09;18564048;32;20092;-57
2022/07/07 06:25:56;;;;;;;3.28;2.17;;;;;;;22.95;47.20;100764.00;18565527;32;20100;-57
2022/07/07 06:35:59;;;;;;;3.28;1.65;;;;;;;23.54;43.83;100758.47;18564897;32;20096;-57
2022/07/07 06:46:04;;;;;;;2.40;1.50;;;;;;;24.28;43.69;100768.87;18564754;32;20136;-55
2022/07/07 06:56:08;;;;;;;4.05;1.98;;;;;;;24.74;43.27;100752.16;18564628;32;20444;-55
2022/07/07 07:06:14;;;;;;;3.70;1.70;;;;;;;25.26;41.18;100748.31;18564075;32;20136;-55
2022/07/07 07:16:17;;;;;;;3.72;1.67;;;;;;;25.88;37.27;100747.31;18563834;32;20099;-55
2022/07/07 07:26:22;;;;;;;4.55;1.73;;;;;;;26.03;36.58;100742.81;18563685;32;20413;-55
2022/07/07 07:36:25;;;;;;;2.97;1.30;;;;;;;26.65;35.96;100734.56;18563082;32;20193;-55
2022/07/07 07:46:30;;;;;;;2.47;1.08;;;;;;;27.19;34.30;100735.56;18546663;32;20104;-55
2022/07/07 07:56:33;;;;;;;2.65;1.25;;;;;;;27.61;32.02;100728.25;18558246;32;20396;-55
2022/07/07 08:06:38;;;;;;;1.80;1.40;;;;;;;27.35;33.91;100730.84;18560263;32;20099;-55
2022/07/07 08:16:42;;;;;;;3.58;1.23;;;;;;;27.76;31.43;100723.62;18562153;32;20424;-55
2022/07/07 08:26:47;;;;;;;2.20;1.25;;;;;;;28.48;30.86;100724.00;18562589;32;20096;-56
2022/07/07 08:36:52;;;;;;;1.77;1.12;;;;;;;28.80;27.10;100702.81;18561133;32;20111;-56
2022/07/07 08:46:56;;;;;;;2.33;1.27;;;;;;;29.42;25.13;100696.44;18560958;32;20145;-56
2022/07/07 08:56:59;;;;;;;2.45;1.30;;;;;;;28.70;26.43;100687.50;18546243;32;20111;-55
2022/07/07 09:07:05;;;;;;;1.60;1.20;;;;;;;28.25;26.72;100681.75;18570013;31;20114;-55
2022/07/07 09:17:17;;;;;;;2.47;1.10;;;;;;;28.76;25.17;100670.94;18559186;32;20132;-56
2022/07/07 09:27:22;;;;;;;1.87;1.02;;;;;;;29.39;23.57;100667.94;18558906;32;20092;-55
2022/07/07 09:47:47;;;;;;;3.75;1.87;;;;;;;29.65;25.38;100673.16;18562446;32;20134;-56
2022/07/07 09:57:50;;;;;;;6.00;1.55;;;;;;;29.31;25.67;100673.06;18551954;32;20115;-56
2022/07/07 10:07:56;;;;;;;2.92;1.30;;;;;;;29.15;25.37;100676.09;18551787;32;20108;-56
2022/07/07 10:17:59;;;;;;;1.85;1.20;;;;;;;28.61;27.90;100672.94;18563946;32;20088;-56
2022/07/07 10:28:04;;;;;;;2.08;1.30;;;;;;;27.87;28.33;100676.41;18565178;32;20119;-56
2022/07/07 10:38:10;;;;;;;3.03;1.70;;;;;;;28.20;28.75;100670.47;18565006;32;20092;-56
2022/07/07 10:48:43;;;;;;;2.22;1.50;;;;;;;27.96;29.41;100671.28;18564487;32;20097;-56
2022/07/07 10:58:57;;;;;;;4.65;1.70;;;;;;;29.26;29.14;100649.22;18562935;32;20118;-55
2022/07/07 11:09:03;;;;;;;1.70;1.30;;;;;;;30.70;27.60;100636.94;18549675;32;20096;-56
2022/07/07 11:19:10;;;;;;;2.33;1.20;;;;;;;30.50;25.45;100614.31;18563280;32;20088;-56
2022/07/07 11:29:15;;;;;;;2.35;1.37;;;;;;;29.85;26.27;100604.31;18548888;32;20134;-56
2022/07/07 11:39:18;;;;;;;1.60;1.42;;;;;;;29.71;26.75;100591.09;18563157;32;20089;-55
2022/07/07 11:49:23;;;;;;;2.47;1.40;;;;;;;30.16;27.62;100574.03;18562770;32;20361;-56
2022/07/07 11:59:26;;;;;;;2.47;1.42;;;;;;;29.52;27.36;100568.38;18549327;32;20464;-55
2022/07/07 12:09:32;;;;;;;1.55;1.10;;;;;;;29.06;28.35;100565.63;18561865;32;20111;-55
2022/07/07 12:19:46;;;;;;;2.60;1.37;;;;;;;29.02;29.86;100548.06;18547275;32;20096;-56
2022/07/07 12:30:01;;;;;;;2.37;1.40;;;;;;;30.25;28.43;100529.38;18561991;32;20692;-55
2022/07/07 12:40:09;;;;;;;1.62;1.30;;;;;;;30.39;26.54;100531.72;18545895;32;73980;-56
2022/07/07 12:50:15;;;;;;;3.40;1.50;;;;;;;30.17;27.95;100513.88;18560893;32;20100;-56
2022/07/07 13:00:25;;;;;;;3.22;1.70;;;;;;;29.73;29.33;100500.38;18576413;31;20098;-55
2022/07/07 13:10:29;;;;;;;;;;;;;;;29.47;30.22;100500.69;18555626;31;20101;-56
2022/07/07 13:20:33;;;;;;;3.97;1.52;;;;;;;29.36;31.20;100490.75;18557799;31;19984;-56
2022/07/07 13:30:37;;;;;;;2.97;1.40;;;;;;;30.78;28.99;100481.81;18556396;32;20081;-56
2022/07/07 13:40:41;;;;;;;1.37;1.12;;;;;;;30.96;26.87;100464.06;18556366;32;20111;-54
2022/07/07 13:50:55;;;;;;;3.33;1.30;;;;;;;32.17;25.10;100455.13;18578976;31;20440;-56
2022/07/07 14:00:58;;;;;;;3.10;1.25;;;;;;;31.66;24.36;100460.59;18555629;32;20412;-56
2022/07/07 14:11:05;;;;;;;4.05;1.50;;;;;;;30.94;25.65;100465.19;18556459;32;20161;-55
2022/07/07 14:21:09;;;;;;;3.20;1.70;;;;;;;29.84;25.64;100478.84;18554640;32;20144;-55
2022/07/07 14:31:14;;;;;;;2.42;1.48;;;;;;;29.60;26.74;100462.91;18541114;32;20119;-56
2022/07/07 14:41:17;;;;;;;2.45;1.60;;;;;;;29.50;27.10;100460.09;18562647;32;20092;-56
2022/07/07 14:51:22;;;;;;;2.85;1.35;;;;;;;29.37;28.68;100462.06;18584061;31;20132;-57
2022/07/07 15:01:25;;;;;;;2.67;1.30;;;;;;;29.10;28.34;100457.94;18571316;31;20123;-56
2022/07/07 15:11:33;;;;;;;3.47;1.70;;;;;;;28.88;28.24;100457.78;18569097;31;20088;-56
2022/07/07 15:21:36;;;;;;;2.87;1.58;;;;;;;28.65;28.92;100464.94;18610941;31;20091;-56
2022/07/07 15:31:42;;;;;;;1.37;1.20;;;;;;;28.41;28.97;100465.00;18579791;31;20108;-55
2022/07/07 15:41:46;;;;;;;3.28;1.40;;;;;;;27.94;28.43;100488.13;18561599;32;20424;-56
2022/07/07 15:51:53;;;;;;;1.62;1.17;;;;;;;27.66;28.31;100483.94;18560879;32;20092;-56
2022/07/07 16:01:56;;;;;;;3.10;1.40;;;;;;;27.67;27.86;100482.94;18608345;31;20424;-57
2022/07/07 16:12:01;;;;;;;3.15;1.40;;;;;;;27.59;28.50;100501.41;18567343;31;20104;-56
2022/07/07 16:22:06;;;;;;;1.58;1.23;;;;;;;27.37;28.79;100505.63;18561272;31;20644;-56
2022/07/07 16:32:11;;;;;;;1.98;1.20;;;;;;;27.22;27.63;100521.84;18566956;31;20115;-56
2022/07/07 16:42:14;;;;;;;3.35;1.20;;;;;;;27.02;27.75;100528.59;18581387;31;20368;-55
2022/07/07 16:52:19;;;;;;;2.28;1.40;;;;;;;26.58;30.13;100544.06;18602627;31;20096;-56
2022/07/07 17:02:22;;;;;;;3.12;1.27;;;;;;;26.34;31.51;100557.28;18625193;31;20124;-56
2022/07/07 17:12:27;;;;;;;1.62;1.20;;;;;;;26.25;31.68;100558.72;18625312;31;20092;-55
2022/07/07 17:22:30;;;;;;;1.00;0.90;;;;;;;25.81;32.68;100556.16;18623961;31;20092;-57
2022/07/07 17:32:35;;;;;;;1.65;1.08;;;;;;;25.92;32.44;100554.59;18606969;31;20488;-56
2022/07/07 17:42:38;;;;;;;3.65;0.90;;;;;;;25.74;32.76;100547.66;18623702;31;20096;-56
2022/07/07 17:52:42;;;;;;;2.55;0.90;;;;;;;25.81;31.67;100553.47;18621662;31;20088;-56
2022/07/07 18:02:46;;;;;;;0.60;0.60;;;;;;;25.58;31.43;100550.44;18575314;31;20092;-56
2022/07/07 18:12:50;;;;;;;0.85;0.65;;;;;;;25.30;31.97;100549.47;18565238;32;20096;-56
2022/07/07 18:22:54;;;;;;;2.58;0.62;;;;;;;25.25;32.14;100550.72;18563210;32;20178;-56
2022/07/07 18:32:59;;;;;;;2.12;0.75;;;;;;;25.27;32.66;100548.78;18562402;32;20347;-59
2022/07/07 18:43:02;;;;;;;1.48;0.80;;;;;;;24.97;33.80;100542.59;18583415;31;20106;-56
2022/07/07 18:53:08;;;;;;;1.92;0.90;;;;;;;24.87;32.90;100549.44;18583116;31;20106;-56
2022/07/07 19:03:11;;;;;;;4.15;1.00;;;;;;;24.35;36.61;100559.53;18587023;31;20388;-55
2022/07/07 19:13:15;;;;;;;1.80;1.00;;;;;;;24.41;35.14;100568.97;18586475;31;20135;-56
2022/07/07 19:23:19;;;;;;;1.12;0.90;;;;;;;24.02;36.80;100576.50;18583258;31;20103;-56
2022/07/07 19:33:24;;;;;;;1.40;1.17;;;;;;;24.06;36.97;100592.25;18590027;31;20135;-56
2022/07/07 19:43:28;;;;;;;4.25;1.10;;;;;;;24.12;37.10;100583.06;18593199;31;20088;-55
2022/07/07 19:53:32;;;;;;;2.67;1.58;;;;;;;23.65;38.29;100601.56;18584231;31;20084;-55
2022/07/07 20:03:35;;;;;;;1.77;1.15;;;;;;;23.60;37.94;100579.63;18605214;31;20137;-55
2022/07/07 20:13:40;;;;;;;2.97;1.30;;;;;;;23.41;39.56;100582.44;18598545;31;20361;-55
2022/07/07 20:23:43;;;;;;;3.50;1.30;;;;;;;23.25;38.78;100593.00;18577200;31;20111;-56
2022/07/07 20:33:48;;;;;;;1.90;1.20;;;;;;;23.09;39.63;100590.25;18556626;31;20107;-56
2022/07/07 20:43:51;;;;;;;2.87;1.27;;;;;;;22.48;42.12;100592.41;18617068;31;20122;-56
2022/07/07 20:53:56;;;;;;;2.15;1.45;;;;;;;22.74;42.17;100593.78;18564237;31;20080;-56
2022/07/07 21:03:59;;;;;;;2.15;1.40;;;;;;;22.59;42.18;100590.09;18562079;31;20096;-56
2022/07/07 21:14:04;;;;;;;3.92;1.52;;;;;;;22.51;41.98;100587.84;18590896;31;20419;-56
2022/07/07 21:24:08;;;;;;;3.40;1.50;;;;;;;22.38;43.15;100589.31;18573127;31;20341;-56
2022/07/07 21:34:12;;;;;;;2.42;1.30;;;;;;;22.17;43.81;100587.66;18572373;31;20107;-56
2022/07/07 21:44:15;;;;;;;3.30;1.50;;;;;;;21.97;44.31;100582.44;18562314;32;20236;-55
2022/07/07 21:54:20;;;;;;;2.47;1.25;;;;;;;21.85;44.83;100584.69;18621123;31;20088;-56
2022/07/07 22:14:49;;;;;;;2.20;1.45;;;;;;;21.25;47.30;100604.19;18587818;31;20111;-56
2022/07/07 22:24:52;;;;;;;3.25;1.73;;;;;;;21.00;48.53;100604.38;18564231;32;20606;-56
2022/07/07 22:34:57;;;;;;;5.50;1.90;;;;;;;21.18;47.54;100594.75;18566252;32;20092;-56
2022/07/07 22:45:00;;;;;;;5.12;1.70;;;;;;;21.14;47.71;100588.72;18565910;32;20096;-56
2022/07/07 22:55:05;;;;;;;4.50;1.70;;;;;;;20.68;49.36;100582.69;18573842;31;20107;-57
2022/07/07 23:05:09;;;;;;;2.92;1.70;;;;;;;20.86;49.11;100592.56;18597972;31;20124;-56
2022/07/07 23:15:14;;;;;;;2.83;1.67;;;;;;;20.85;49.19;100588.19;18550962;32;20461;-56
2022/07/07 23:25:17;;;;;;;2.95;1.73;;;;;;;20.74;49.41;100588.63;18563794;32;20100;-56
2022/07/07 23:35:28;;;;;;;4.45;2.03;;;;;;;20.65;50.14;100591.66;18564654;32;20106;-55
2022/07/07 23:45:32;;;;;;;4.10;2.45;;;;;;;20.55;50.99;100580.56;18548585;31;20174;-55
2022/07/07 23:55:37;;;;;;;2.55;1.62;;;;;;;20.66;50.59;100582.78;18563079;32;20092;-56
